עמוד ראשי
METAR-TAF:

METAR-TAF

שדות תעופה :

שטוטגרט, גרמניה

נמל התעופה שטוטגרט

קו רוחב: 48-41N, קו אורך: 009-13E, גובה: 396מטר

תצפית מזג אוויר נוכחית

הדו"ח נערך לפני 25דקות, בשעה 19:20 UTC
רוח 1קשר עם כיוונים משתנים
טמפרטורת 16 צלסיוס
לחות 63%
לחץ 1023 hPa
ראות 10 קילומטר או יותר
ללא עננים שבסיסם נמוך מ 5000 רגל או קומולונימבוס

METAR: EDDS 211920Z VRB01KT CAVOK 16/09 Q1023 NOSIG

זמן: 21:45 (19:45 UTC)

תחזית

הדו"ח נערך לפני 2 שעות ו 45דקות, בשעה 17:00 UTC
תחזית בתוקף מ 21 ב 18 UTC עד 22 ב 18 UTC
רוח 3קשר עם כיוונים משתנים
ראות 10 קילומטר או יותר
ללא עננים שבסיסם נמוך מ 5000 רגל או קומולונימבוס

TAF: EDDS 211700Z 2118/2218 VRB03KT CAVOK

תצפיות ותחזיות מזג אוויר לגבי יותר מ- 4,000 שדות תעופה ברחבי העולם. דוחות METAR ו- TAF.

התחנות הזמינות מסומנות בנקודות צהובות ואדומות על גבי המפה.

העבר את העכבר לנקודה הצבעונית על מנת לראות את שם התחנה.

לאחר מכן, לחץ כדי לראות את תוכן ואת תחזיות מזג האוויר.

כדי לשנות את המפה: לחץ על הכפתורים הירוקים עם הפלוס השחור כדי להתקרב; על הכפתור הירוק עם המקף כדי להתרחק; או בחיצים הירוקים למפות סמוכות.


METAR-TAF: